createdAt,value
2022-12-16T00:01:19.540Z,21.23
2022-12-16T00:03:52.040Z,22.63
2022-12-16T00:06:24.575Z,22.07
2022-12-16T00:08:55.033Z,20.50
2022-12-16T00:11:24.111Z,22.37
2022-12-16T00:13:53.031Z,22.00
2022-12-16T00:16:23.913Z,20.83
2022-12-16T00:18:52.905Z,18.20
2022-12-16T00:21:28.680Z,17.37
2022-12-16T00:23:58.181Z,18.77
2022-12-16T00:26:27.439Z,19.07
2022-12-16T00:28:56.209Z,17.47
2022-12-16T00:31:25.459Z,17.33
2022-12-16T00:33:58.272Z,17.80
2022-12-16T00:36:28.488Z,21.00
2022-12-16T00:38:57.326Z,21.90
2022-12-16T00:41:26.134Z,21.20
2022-12-16T00:43:55.016Z,20.17
2022-12-16T00:46:23.858Z,19.90
2022-12-16T00:48:52.833Z,19.33
2022-12-16T00:51:24.651Z,19.50
2022-12-16T00:53:55.450Z,17.47
2022-12-16T00:56:25.264Z,17.60
2022-12-16T00:58:54.136Z,19.10
2022-12-16T01:01:23.811Z,18.93
2022-12-16T01:03:58.517Z,17.87
2022-12-16T01:06:27.643Z,17.70
2022-12-16T01:08:58.633Z,17.67
2022-12-16T01:11:27.420Z,18.23
2022-12-16T01:13:56.159Z,17.70
2022-12-16T01:16:25.246Z,18.17
2022-12-16T01:18:56.334Z,18.50
2022-12-16T01:21:25.613Z,19.27
2022-12-16T01:23:56.135Z,18.10
2022-12-16T01:26:25.360Z,19.50
2022-12-16T01:28:54.225Z,18.27
2022-12-16T01:31:24.698Z,19.97
2022-12-16T01:33:53.765Z,18.73
2022-12-16T01:36:22.900Z,19.50
2022-12-16T01:38:51.897Z,18.90
2022-12-16T01:41:22.805Z,18.73
2022-12-16T01:43:51.724Z,19.63
2022-12-16T01:46:26.098Z,20.27
2022-12-16T01:49:00.993Z,18.67
2022-12-16T01:51:36.936Z,20.17
2022-12-16T01:54:11.987Z,19.70
2022-12-16T01:56:52.608Z,19.30
2022-12-16T01:59:24.289Z,19.37
2022-12-16T02:01:53.864Z,20.30
2022-12-16T02:04:34.906Z,19.87
2022-12-16T02:07:03.748Z,19.93
2022-12-16T02:09:32.632Z,19.93
2022-12-16T02:12:24.461Z,20.43
2022-12-16T02:15:24.545Z,20.00
2022-12-16T02:18:07.185Z,20.17
2022-12-16T02:21:16.208Z,21.67
2022-12-16T02:24:27.371Z,20.87
2022-12-16T02:27:50.706Z,20.83
2022-12-16T02:31:02.750Z,20.70
2022-12-16T02:33:58.969Z,21.87
2022-12-16T02:36:48.738Z,21.80
2022-12-16T02:39:26.778Z,22.10
2022-12-16T02:42:07.524Z,21.60
2022-12-16T02:44:56.266Z,21.90
2022-12-16T02:47:27.080Z,22.23
2022-12-16T02:49:57.813Z,22.03
2022-12-16T02:52:31.164Z,21.53
2022-12-16T02:55:03.703Z,23.20
2022-12-16T02:58:06.148Z,22.97
2022-12-16T03:00:53.627Z,23.00
2022-12-16T03:03:32.395Z,22.80
2022-12-16T03:06:05.224Z,23.10
2022-12-16T03:08:41.084Z,24.07
2022-12-16T03:11:10.371Z,23.43
2022-12-16T03:13:46.278Z,24.73
2022-12-16T03:16:20.421Z,23.73
2022-12-16T03:18:59.163Z,25.97
2022-12-16T03:21:35.828Z,31.27
2022-12-16T03:24:10.730Z,26.57
2022-12-16T03:26:53.896Z,29.33
2022-12-16T03:29:34.835Z,28.20
2022-12-16T03:32:10.721Z,27.17
2022-12-16T03:34:47.668Z,30.40
2022-12-16T03:37:17.494Z,28.17
2022-12-16T03:39:53.205Z,27.67
2022-12-16T03:42:22.171Z,27.37
2022-12-16T03:44:52.304Z,27.30
2022-12-16T03:47:24.099Z,24.40
2022-12-16T03:49:54.810Z,36.33
2022-12-16T03:52:28.801Z,25.83
2022-12-16T03:55:23.365Z,25.73
2022-12-16T03:57:52.305Z,28.03
2022-12-16T04:00:22.126Z,25.83
2022-12-16T04:02:51.602Z,27.53
2022-12-16T04:05:21.956Z,26.90
2022-12-16T04:07:50.923Z,27.27
2022-12-16T04:10:40.757Z,26.53
2022-12-16T04:13:28.346Z,25.33
2022-12-16T04:16:15.149Z,26.23
2022-12-16T04:19:02.097Z,26.17
2022-12-16T04:21:49.648Z,28.30
2022-12-16T04:24:23.994Z,26.47
2022-12-16T04:27:15.335Z,27.77
2022-12-16T04:30:02.475Z,27.33
2022-12-16T04:32:53.406Z,26.50
2022-12-16T04:35:39.527Z,27.57
2022-12-16T04:38:27.246Z,27.47
2022-12-16T04:41:14.198Z,27.60
2022-12-16T04:44:01.034Z,28.03
2022-12-16T04:46:47.564Z,28.30
2022-12-16T04:49:33.984Z,27.87
2022-12-16T04:52:20.696Z,28.07
2022-12-16T04:55:08.650Z,29.50
2022-12-16T04:57:56.814Z,28.67
2022-12-16T05:00:43.472Z,27.60
2022-12-16T05:03:31.566Z,27.60
2022-12-16T05:06:19.271Z,28.97
2022-12-16T05:09:05.983Z,28.83
2022-12-16T05:11:54.381Z,30.00
2022-12-16T05:14:41.021Z,31.33
2022-12-16T05:17:45.300Z,28.87
2022-12-16T05:20:33.972Z,25.50
2022-12-16T05:23:27.721Z,25.30
2022-12-16T05:26:14.028Z,24.13
2022-12-16T05:29:04.047Z,24.00
2022-12-16T05:32:05.206Z,23.67
2022-12-16T05:34:52.816Z,24.07
2022-12-16T05:37:42.354Z,29.97
2022-12-16T05:40:33.903Z,27.90
2022-12-16T05:43:21.074Z,24.40
2022-12-16T05:46:10.105Z,24.67
2022-12-16T05:48:56.166Z,23.00
2022-12-16T05:51:44.256Z,24.73
2022-12-16T05:54:30.254Z,23.03
2022-12-16T05:57:16.446Z,22.37
2022-12-16T06:00:02.431Z,21.67
2022-12-16T06:02:58.927Z,23.00
2022-12-16T06:05:45.087Z,22.07
2022-12-16T06:08:31.455Z,22.87
2022-12-16T06:11:17.381Z,21.80
2022-12-16T06:14:03.211Z,21.97
2022-12-16T06:16:49.685Z,22.47
2022-12-16T06:19:37.089Z,22.33
2022-12-16T06:22:23.446Z,22.37
2022-12-16T06:25:09.870Z,21.57
2022-12-16T06:27:56.150Z,22.10
2022-12-16T06:30:42.471Z,22.80
2022-12-16T06:33:29.121Z,22.53
2022-12-16T06:36:45.764Z,22.03
2022-12-16T06:39:32.181Z,22.57
2022-12-16T06:42:18.619Z,21.93
2022-12-16T06:45:04.911Z,23.03
2022-12-16T06:47:51.366Z,24.20
2022-12-16T06:50:41.632Z,25.77
2022-12-16T06:53:32.560Z,27.93
2022-12-16T06:56:19.116Z,28.93
2022-12-16T06:59:05.317Z,31.97
2022-12-16T07:01:51.631Z,29.43
2022-12-16T07:04:38.068Z,30.70
2022-12-16T07:07:24.179Z,27.67
2022-12-16T07:10:36.953Z,27.90
2022-12-16T07:13:23.596Z,25.80
2022-12-16T07:16:09.733Z,26.50
2022-12-16T07:18:56.201Z,24.37
2022-12-16T07:21:42.132Z,25.10
2022-12-16T07:24:28.320Z,23.80
2022-12-16T07:27:15.858Z,25.47
2022-12-16T07:30:02.206Z,24.67
2022-12-16T07:32:51.153Z,25.50
2022-12-16T07:35:37.591Z,25.40
2022-12-16T07:38:23.859Z,25.43
2022-12-16T07:41:10.004Z,24.70
2022-12-16T07:43:57.438Z,24.70
2022-12-16T07:46:43.673Z,24.87
2022-12-16T07:49:29.872Z,25.40
2022-12-16T07:52:16.241Z,25.23
2022-12-16T07:55:02.539Z,25.30
2022-12-16T07:57:48.904Z,25.37
2022-12-16T08:00:37.296Z,25.50
2022-12-16T08:03:19.887Z,26.03
2022-12-16T08:06:07.378Z,26.03
2022-12-16T08:08:53.488Z,27.40
2022-12-16T08:11:39.308Z,26.17
2022-12-16T08:14:25.350Z,26.40
2022-12-16T08:17:13.073Z,26.47
2022-12-16T08:19:59.043Z,27.40
2022-12-16T08:22:44.882Z,26.03
2022-12-16T08:25:31.168Z,26.27
2022-12-16T08:28:17.106Z,27.47
2022-12-16T08:31:02.885Z,27.87
2022-12-16T08:33:50.802Z,28.73
2022-12-16T08:36:37.512Z,29.03
2022-12-16T08:39:24.118Z,35.30
2022-12-16T08:42:10.488Z,30.97
2022-12-16T08:44:56.758Z,29.40
2022-12-16T08:47:42.873Z,39.87
2022-12-16T08:50:30.915Z,33.30
2022-12-16T08:53:17.479Z,29.30
2022-12-16T08:56:03.873Z,28.63
2022-12-16T08:58:50.496Z,28.90
2022-12-16T09:01:39.275Z,29.07
2022-12-16T09:04:25.938Z,28.23
2022-12-16T09:07:14.082Z,28.57
2022-12-16T09:10:00.340Z,29.70
2022-12-16T09:12:46.497Z,29.37
2022-12-16T09:15:33.063Z,28.87
2022-12-16T09:18:24.969Z,29.20
2022-12-16T09:21:13.715Z,28.80
2022-12-16T09:24:01.391Z,29.47
2022-12-16T09:26:48.744Z,29.43
2022-12-16T09:29:40.550Z,28.77
2022-12-16T09:32:32.269Z,28.97
2022-12-16T09:35:18.680Z,27.87
2022-12-16T09:38:06.246Z,29.17
2022-12-16T09:40:56.368Z,26.53
2022-12-16T09:44:09.683Z,27.60
2022-12-16T09:47:10.821Z,27.77
2022-12-16T09:50:06.556Z,27.27
2022-12-16T09:53:17.870Z,26.70
2022-12-16T09:56:06.843Z,26.33
2022-12-16T09:59:01.923Z,26.97
2022-12-16T10:01:55.193Z,27.57
2022-12-16T10:04:58.375Z,27.63
2022-12-16T10:07:51.969Z,27.40
2022-12-16T10:10:49.320Z,27.80
2022-12-16T10:13:51.151Z,28.50
2022-12-16T10:16:48.014Z,29.97
2022-12-16T10:19:50.288Z,30.60
2022-12-16T10:22:48.141Z,27.23
2022-12-16T10:25:41.286Z,31.97
2022-12-16T10:28:37.529Z,30.00
2022-12-16T10:31:34.270Z,31.20
2022-12-16T10:34:22.060Z,31.40
2022-12-16T10:37:14.243Z,30.67
2022-12-16T10:40:08.130Z,31.07
2022-12-16T10:43:06.874Z,30.93
2022-12-16T10:46:02.746Z,31.33
2022-12-16T10:48:56.450Z,29.37
2022-12-16T10:51:48.335Z,28.83
2022-12-16T10:54:54.050Z,30.90
2022-12-16T10:57:57.545Z,30.27
2022-12-16T11:01:04.316Z,29.27
2022-12-16T11:03:54.448Z,31.33
2022-12-16T11:06:45.618Z,31.97
2022-12-16T11:09:43.125Z,32.07
2022-12-16T11:12:45.277Z,31.00
2022-12-16T11:15:46.167Z,30.47
2022-12-16T11:18:43.201Z,31.03
2022-12-16T11:21:36.111Z,30.93
2022-12-16T11:24:40.909Z,31.63
2022-12-16T11:27:40.640Z,32.57
2022-12-16T11:30:39.026Z,33.03
2022-12-16T11:33:37.858Z,31.87
2022-12-16T11:36:36.165Z,31.00
2022-12-16T11:39:26.321Z,31.97
2022-12-16T11:42:15.270Z,32.27
2022-12-16T11:45:08.019Z,31.43
2022-12-16T11:48:01.584Z,32.93
2022-12-16T11:50:55.519Z,33.10
2022-12-16T11:53:51.136Z,32.37
2022-12-16T11:56:44.815Z,32.93
2022-12-16T11:59:46.057Z,32.40
2022-12-16T12:02:41.033Z,32.57
2022-12-16T12:05:31.812Z,33.70
2022-12-16T12:08:31.022Z,33.27
2022-12-16T12:11:32.075Z,32.33
2022-12-16T12:14:32.419Z,34.00
2022-12-16T12:17:36.031Z,33.27
2022-12-16T12:20:56.386Z,34.00
2022-12-16T12:29:38.349Z,33.53
2022-12-16T12:32:42.938Z,38.27
2022-12-16T12:35:47.258Z,35.87
2022-12-16T12:41:47.352Z,33.17
2022-12-16T12:44:48.837Z,33.33
2022-12-16T12:47:38.294Z,33.43
2022-12-16T12:50:33.801Z,33.77
2022-12-16T12:53:41.881Z,32.43
2022-12-16T12:56:46.950Z,33.00
2022-12-16T12:59:41.315Z,33.20
2022-12-16T13:02:35.122Z,33.60
2022-12-16T13:05:24.774Z,33.33
2022-12-16T13:08:11.189Z,33.17
2022-12-16T13:10:57.671Z,33.20
2022-12-16T13:13:56.111Z,33.73
2022-12-16T13:17:24.933Z,35.37
2022-12-16T13:20:18.498Z,33.63
2022-12-16T13:23:05.730Z,33.83
2022-12-16T13:25:59.198Z,34.80
2022-12-16T13:28:55.906Z,33.80
2022-12-16T13:31:43.761Z,32.70
2022-12-16T13:34:46.931Z,34.67
2022-12-16T13:37:52.469Z,34.50
2022-12-16T13:40:42.436Z,35.67
2022-12-16T13:44:03.755Z,38.53
2022-12-16T13:47:02.289Z,40.47
2022-12-16T13:50:08.724Z,38.27
2022-12-16T13:53:05.208Z,35.87
2022-12-16T13:55:59.009Z,35.47
2022-12-16T13:59:04.853Z,35.10
2022-12-16T14:02:06.531Z,33.83
2022-12-16T14:04:56.435Z,33.40
2022-12-16T14:07:54.569Z,34.70
2022-12-16T14:10:47.325Z,36.90
2022-12-16T14:13:42.500Z,34.20
2022-12-16T14:16:38.176Z,33.00
2022-12-16T14:19:44.549Z,34.67
2022-12-16T14:22:56.330Z,33.47
2022-12-16T14:25:44.210Z,33.00
2022-12-16T14:28:46.559Z,36.20
2022-12-16T14:31:39.939Z,34.73
2022-12-16T14:34:34.751Z,35.17
2022-12-16T14:37:31.772Z,36.50
2022-12-16T14:40:20.823Z,38.37
2022-12-16T14:43:13.131Z,36.10
2022-12-16T14:46:08.411Z,37.60
2022-12-16T14:48:58.687Z,36.77
2022-12-16T14:51:49.205Z,38.13
2022-12-16T14:54:44.457Z,36.17
2022-12-16T14:57:34.802Z,36.47
2022-12-16T15:00:34.465Z,35.97
2022-12-16T15:03:32.825Z,35.93
2022-12-16T15:06:23.515Z,34.90
2022-12-16T15:09:14.554Z,34.40
2022-12-16T15:12:17.637Z,36.07
2022-12-16T15:15:04.269Z,34.13
2022-12-16T15:18:03.913Z,33.27
2022-12-16T15:20:54.441Z,36.67
2022-12-16T15:23:44.804Z,39.33
2022-12-16T15:26:54.721Z,38.13
2022-12-16T15:29:51.739Z,36.13
2022-12-16T15:32:53.075Z,38.17
2022-12-16T15:35:50.831Z,34.57
2022-12-16T15:38:47.459Z,35.43
2022-12-16T15:42:04.744Z,34.37
2022-12-16T15:44:50.912Z,37.30
2022-12-16T15:47:49.805Z,35.13
2022-12-16T15:50:40.489Z,35.10
2022-12-16T15:53:49.897Z,40.93
2022-12-16T15:56:42.296Z,36.30
2022-12-16T15:59:43.680Z,35.77
2022-12-16T16:02:37.374Z,34.33
2022-12-16T16:05:33.147Z,35.83
2022-12-16T16:08:20.042Z,36.07
2022-12-16T16:11:06.599Z,35.43
2022-12-16T16:13:55.154Z,35.73
2022-12-16T16:16:44.406Z,35.70
2022-12-16T16:19:35.802Z,35.83
2022-12-16T16:22:21.976Z,34.77
2022-12-16T16:25:08.424Z,35.57
2022-12-16T16:27:54.878Z,36.30
2022-12-16T16:30:42.417Z,34.87
2022-12-16T16:33:28.585Z,34.43
2022-12-16T16:36:15.124Z,32.13
2022-12-16T16:39:01.307Z,33.30
2022-12-16T16:41:47.069Z,33.23
2022-12-16T16:44:32.984Z,33.93
2022-12-16T16:47:20.479Z,34.97
2022-12-16T16:50:06.900Z,32.03
2022-12-16T16:52:53.161Z,31.70
2022-12-16T16:55:42.571Z,35.20
2022-12-16T16:58:34.494Z,37.10
2022-12-16T17:01:20.827Z,37.37
2022-12-16T17:04:08.420Z,35.10
2022-12-16T17:07:00.005Z,36.20
2022-12-16T17:09:45.861Z,35.67
2022-12-16T17:12:38.815Z,41.90
2022-12-16T17:15:37.011Z,35.57
2022-12-16T17:18:25.110Z,36.90
2022-12-16T17:21:13.233Z,35.43
2022-12-16T17:23:59.339Z,35.23
2022-12-16T17:26:46.324Z,34.67
2022-12-16T17:29:38.789Z,33.53
2022-12-16T17:32:25.218Z,34.13
2022-12-16T17:35:11.809Z,34.07
2022-12-16T17:37:59.568Z,34.00
2022-12-16T17:40:45.848Z,33.07
2022-12-16T17:43:32.754Z,33.20
2022-12-16T17:46:22.089Z,36.03
2022-12-16T17:49:11.817Z,34.37
2022-12-16T17:51:58.403Z,32.97
2022-12-16T17:54:53.370Z,34.60
2022-12-16T17:57:39.573Z,34.70
2022-12-16T18:00:27.516Z,32.77
2022-12-16T18:03:14.305Z,34.37
2022-12-16T18:06:00.910Z,33.60
2022-12-16T18:08:47.524Z,33.13
2022-12-16T18:11:38.722Z,33.83
2022-12-16T18:14:31.496Z,33.23
2022-12-16T18:17:24.229Z,33.37
2022-12-16T18:20:10.791Z,33.77
2022-12-16T18:22:57.080Z,33.27
2022-12-16T18:25:43.289Z,32.83
2022-12-16T18:28:31.478Z,32.47
2022-12-16T18:31:17.964Z,34.30
2022-12-16T18:34:04.317Z,34.37
2022-12-16T18:36:51.410Z,34.40
2022-12-16T18:39:39.192Z,33.43
2022-12-16T18:42:27.808Z,34.37
2022-12-16T18:45:18.348Z,34.77
2022-12-16T18:48:05.054Z,34.03
2022-12-16T18:50:56.218Z,33.57
2022-12-16T18:53:42.863Z,32.77
2022-12-16T18:56:29.836Z,33.40
2022-12-16T18:59:17.861Z,35.73
2022-12-16T19:02:06.049Z,35.70
2022-12-16T19:04:52.248Z,36.73
2022-12-16T19:07:38.732Z,34.67
2022-12-16T19:10:26.855Z,35.20
2022-12-16T19:13:23.888Z,35.33
2022-12-16T19:16:15.145Z,34.20
2022-12-16T19:19:03.332Z,33.83
2022-12-16T19:21:52.360Z,34.33
2022-12-16T19:24:44.381Z,34.80
2022-12-16T19:27:33.177Z,32.50
2022-12-16T19:30:19.847Z,34.03
2022-12-16T19:33:07.477Z,33.80
2022-12-16T19:35:56.925Z,34.93
2022-12-16T19:39:10.139Z,35.17
2022-12-16T19:41:56.830Z,32.60
2022-12-16T19:44:43.235Z,34.27
2022-12-16T19:47:29.893Z,33.30
2022-12-16T19:50:27.321Z,34.73
2022-12-16T19:53:15.259Z,35.13
2022-12-16T19:56:05.092Z,36.87
2022-12-16T19:58:52.064Z,33.47
2022-12-16T20:01:38.923Z,35.50
2022-12-16T20:04:26.169Z,33.60
2022-12-16T20:07:12.306Z,33.90
2022-12-16T20:09:59.941Z,33.50
2022-12-16T20:12:48.615Z,33.67
2022-12-16T20:15:35.023Z,33.40
2022-12-16T20:18:23.730Z,32.80
2022-12-16T20:21:09.818Z,33.80
2022-12-16T20:23:59.256Z,34.13
2022-12-16T20:26:47.335Z,33.77
2022-12-16T20:29:34.108Z,35.40
2022-12-16T20:32:20.418Z,34.97
2022-12-16T20:35:09.090Z,35.47
2022-12-16T20:37:57.847Z,34.60
2022-12-16T20:40:44.452Z,35.60
2022-12-16T20:43:32.642Z,33.50
2022-12-16T20:46:19.102Z,34.37
2022-12-16T20:49:05.705Z,33.50
2022-12-16T20:51:51.749Z,32.90
2022-12-16T20:54:38.042Z,33.67
2022-12-16T20:57:24.364Z,33.07
2022-12-16T21:00:08.423Z,33.47
2022-12-16T21:02:56.755Z,33.93
2022-12-16T21:05:42.888Z,35.37
2022-12-16T21:08:29.067Z,34.10
2022-12-16T21:11:12.369Z,32.67
2022-12-16T21:13:58.546Z,34.63
2022-12-16T21:16:46.423Z,33.63
2022-12-16T21:19:33.853Z,34.60
2022-12-16T21:22:20.466Z,34.67
2022-12-16T21:25:06.663Z,34.37
2022-12-16T21:27:53.258Z,33.23
2022-12-16T21:30:43.616Z,33.77
2022-12-16T21:33:38.762Z,33.40
2022-12-16T21:36:26.496Z,33.93
2022-12-16T21:39:12.443Z,34.43
2022-12-16T21:41:59.175Z,34.27
2022-12-16T21:44:45.388Z,34.43
2022-12-16T21:47:31.814Z,36.47
2022-12-16T21:50:19.626Z,34.73
2022-12-16T21:53:06.856Z,34.53
2022-12-16T21:55:53.198Z,34.03
2022-12-16T21:58:40.557Z,33.53
2022-12-16T22:01:28.325Z,34.47
2022-12-16T22:04:14.325Z,34.33
2022-12-16T22:07:06.517Z,33.67
2022-12-16T22:09:53.038Z,34.07
2022-12-16T22:12:43.034Z,32.30
2022-12-16T22:15:29.816Z,34.57
2022-12-16T22:18:16.302Z,33.60
2022-12-16T22:21:17.119Z,32.47
2022-12-16T22:24:04.726Z,38.17
2022-12-16T22:26:51.459Z,36.63
2022-12-16T22:29:40.030Z,33.87
2022-12-16T22:32:26.583Z,35.40
2022-12-16T22:35:13.127Z,32.80
2022-12-16T22:37:59.712Z,33.80
2022-12-16T22:40:47.536Z,33.57
2022-12-16T22:43:34.558Z,33.30
2022-12-16T22:46:22.409Z,33.53
2022-12-16T22:49:09.050Z,34.73
2022-12-16T22:51:55.587Z,34.27
2022-12-16T22:54:43.420Z,32.30
2022-12-16T22:57:31.679Z,32.37
2022-12-16T23:00:18.222Z,32.63
2022-12-16T23:03:04.840Z,32.13
2022-12-16T23:05:51.265Z,33.17
2022-12-16T23:08:39.303Z,32.87
2022-12-16T23:11:25.752Z,33.13
2022-12-16T23:14:13.885Z,31.30
2022-12-16T23:17:00.242Z,32.50
2022-12-16T23:19:46.620Z,32.53
2022-12-16T23:22:32.868Z,33.00
2022-12-16T23:25:19.203Z,31.93
2022-12-16T23:28:05.170Z,32.10
2022-12-16T23:30:52.865Z,32.70
2022-12-16T23:33:40.295Z,31.17
2022-12-16T23:36:27.508Z,32.63
2022-12-16T23:39:14.260Z,31.57
2022-12-16T23:42:00.508Z,30.30
2022-12-16T23:44:48.740Z,32.53
2022-12-16T23:47:39.884Z,31.17
2022-12-16T23:50:27.009Z,33.40
2022-12-16T23:53:21.671Z,33.07
2022-12-16T23:56:07.869Z,32.00
2022-12-16T23:58:54.058Z,32.73
